Time;durP1;ratioP1;P1;durP2;ratioP2;P2;SDS_P1;SDS_P2;PMS_P1;PMS_P2;Temp;Humidity;BMP_temperature;BMP_pressure;BME280_temperature;BME280_humidity;BME280_pressure;Samples;Min_cycle;Max_cycle;Signal;HPM_P1;HPM_P2
2022/12/25 00:02:03;;;;;;;2.42;1.27;;;;;;;;;;4572532;27;20042;-59
2022/12/25 00:04:14;;;;;;;2.67;0.95;;;;;;;;;;4570120;27;20670;-59
2022/12/25 00:06:24;;;;;;;2.25;1.10;;;;;;;;;;4571128;27;20369;-59
2022/12/25 00:08:35;;;;;;;1.67;0.90;;;;;;;;;;4569414;27;20024;-58
2022/12/25 00:10:46;;;;;;;1.38;0.90;;;;;;;;;;4571821;27;20039;-59
2022/12/25 00:12:56;;;;;;;1.73;1.00;;;;;;;;;;4570689;27;20522;-59
2022/12/25 00:15:07;;;;;;;1.70;1.10;;;;;;;;;;4569215;27;20037;-59
2022/12/25 00:17:17;;;;;;;1.70;1.02;;;;;;;;;;4571659;27;20044;-57
2022/12/25 00:19:27;;;;;;;1.35;0.90;;;;;;;;;;4572142;27;20385;-58
2022/12/25 00:21:38;;;;;;;1.45;1.00;;;;;;;;;;4569361;27;20044;-59
2022/12/25 00:23:52;;;;;;;1.92;1.00;;;;;;;;;;4569856;27;20503;-58
2022/12/25 00:26:03;;;;;;;1.67;0.90;;;;;;;;;;4573576;27;20044;-58
2022/12/25 00:28:14;;;;;;;1.65;0.90;;;;;;;;;;4568510;27;20504;-59
2022/12/25 00:30:24;;;;;;;1.63;1.00;;;;;;;;;;4568937;27;20060;-58
2022/12/25 00:32:35;;;;;;;1.35;0.70;;;;;;;;;;4572189;27;20094;-59
2022/12/25 00:34:46;;;;;;;2.40;1.02;;;;;;;;;;4574399;27;20040;-58
2022/12/25 00:36:56;;;;;;;2.25;1.00;;;;;;;;;;4569970;27;20036;-58
2022/12/25 00:39:07;;;;;;;2.00;1.05;;;;;;;;;;4572147;27;20101;-59
2022/12/25 00:43:48;;;;;;;1.80;0.90;;;;;;;;;;4555003;27;20039;-58
2022/12/25 00:45:59;;;;;;;2.33;1.02;;;;;;;;;;4570159;27;20051;-59
2022/12/25 00:48:09;;;;;;;1.60;1.00;;;;;;;;;;4571013;27;20523;-59
2022/12/25 00:50:19;;;;;;;1.63;1.10;;;;;;;;;;4572529;27;21056;-58
2022/12/25 00:52:30;;;;;;;1.95;1.00;;;;;;;;;;4571914;27;20438;-59
2022/12/25 00:54:40;;;;;;;1.45;0.90;;;;;;;;;;4572344;27;20048;-58
2022/12/25 00:56:50;;;;;;;2.03;1.10;;;;;;;;;;4571730;27;20466;-58
2022/12/25 00:59:01;;;;;;;1.30;1.00;;;;;;;;;;4572663;27;20646;-59
2022/12/25 01:01:11;;;;;;;2.28;1.10;;;;;;;;;;4561470;27;20053;-59
2022/12/25 01:03:22;;;;;;;2.25;1.13;;;;;;;;;;4571079;27;20085;-58
2022/12/25 01:05:32;;;;;;;1.30;0.82;;;;;;;;;;4555615;27;20593;-59
2022/12/25 01:07:42;;;;;;;1.92;1.23;;;;;;;;;;4573616;27;20029;-59
2022/12/25 01:12:22;;;;;;;1.75;1.10;;;;;;;;;;4571999;27;20098;-59
2022/12/25 01:14:32;;;;;;;2.00;1.00;;;;;;;;;;4570147;27;20039;-59
2022/12/25 01:16:42;;;;;;;2.13;1.20;;;;;;;;;;4562255;27;20039;-59
2022/12/25 01:18:52;;;;;;;1.45;1.00;;;;;;;;;;4571708;27;20344;-58
2022/12/25 01:21:06;;;;;;;1.63;1.00;;;;;;;;;;4571372;27;20040;-58
2022/12/25 01:23:16;;;;;;;2.03;1.10;;;;;;;;;;4571734;27;20035;-58
2022/12/25 01:25:27;;;;;;;2.42;0.98;;;;;;;;;;4571594;27;20400;-58
2022/12/25 01:27:38;;;;;;;1.42;0.82;;;;;;;;;;4568817;27;20044;-58
2022/12/25 01:29:48;;;;;;;1.63;1.00;;;;;;;;;;4572287;27;20095;-58
2022/12/25 01:31:58;;;;;;;1.85;0.90;;;;;;;;;;4569123;27;20028;-59
2022/12/25 01:34:09;;;;;;;1.30;0.90;;;;;;;;;;4567166;27;20492;-59
2022/12/25 01:36:20;;;;;;;1.85;0.98;;;;;;;;;;4568104;27;20110;-60
2022/12/25 01:38:30;;;;;;;1.67;1.00;;;;;;;;;;4555116;27;20047;-59
2022/12/25 01:40:41;;;;;;;1.35;0.98;;;;;;;;;;4571922;27;20058;-58
2022/12/25 01:42:51;;;;;;;1.60;1.10;;;;;;;;;;4567015;27;20039;-58
2022/12/25 01:45:20;;;;;;;2.13;1.00;;;;;;;;;;4570166;27;20041;-58
2022/12/25 01:47:30;;;;;;;1.92;0.98;;;;;;;;;;4561811;27;20595;-59
2022/12/25 01:49:43;;;;;;;1.92;1.02;;;;;;;;;;4572390;27;20736;-58
2022/12/25 01:51:55;;;;;;;1.75;1.10;;;;;;;;;;4569459;27;20650;-59
2022/12/25 01:54:09;;;;;;;1.95;1.15;;;;;;;;;;4567726;27;20020;-59
2022/12/25 01:56:19;;;;;;;1.90;1.20;;;;;;;;;;4543118;27;20036;-58
2022/12/25 01:58:30;;;;;;;2.13;1.00;;;;;;;;;;4573886;27;20040;-58
2022/12/25 02:00:40;;;;;;;1.20;1.10;;;;;;;;;;4567472;27;20853;-58
2022/12/25 02:02:50;;;;;;;2.20;1.20;;;;;;;;;;4566862;27;20493;-58
2022/12/25 02:05:21;;;;;;;1.38;1.00;;;;;;;;;;4566636;27;20040;-58
2022/12/25 02:07:32;;;;;;;1.60;1.10;;;;;;;;;;4570198;27;21004;-58
2022/12/25 02:09:43;;;;;;;1.52;0.95;;;;;;;;;;4567704;27;20043;-59
2022/12/25 02:11:56;;;;;;;1.25;0.93;;;;;;;;;;4568764;27;20035;-58
2022/12/25 02:14:06;;;;;;;1.20;0.88;;;;;;;;;;4568574;27;20035;-58
2022/12/25 02:16:18;;;;;;;2.10;1.30;;;;;;;;;;4568064;27;20051;-58
2022/12/25 02:18:38;;;;;;;2.25;0.95;;;;;;;;;;4568265;27;20098;-58
2022/12/25 02:21:01;;;;;;;1.17;0.88;;;;;;;;;;4569233;27;20591;-58
2022/12/25 02:23:22;;;;;;;1.80;1.02;;;;;;;;;;4569119;27;20026;-58
2022/12/25 02:25:32;;;;;;;1.42;1.10;;;;;;;;;;4571147;27;20040;-59
2022/12/25 02:27:45;;;;;;;1.90;1.00;;;;;;;;;;4568391;27;20033;-59
2022/12/25 02:30:00;;;;;;;1.55;1.00;;;;;;;;;;4566976;27;20045;-58
2022/12/25 02:32:21;;;;;;;1.77;1.10;;;;;;;;;;4567649;27;20043;-58
2022/12/25 02:34:38;;;;;;;1.30;1.00;;;;;;;;;;4569325;27;20071;-58
2022/12/25 02:37:11;;;;;;;1.60;1.00;;;;;;;;;;4549594;27;20040;-58
2022/12/25 02:41:56;;;;;;;1.52;0.98;;;;;;;;;;4568533;27;20638;-58
2022/12/25 03:06:42;;;;;;;1.58;0.93;;;;;;;;;;4569948;27;20025;-58
2022/12/25 03:08:54;;;;;;;1.58;0.90;;;;;;;;;;4554042;27;20107;-58
2022/12/25 03:13:37;;;;;;;1.60;0.80;;;;;;;;;;4570736;27;20044;-58
2022/12/25 03:18:19;;;;;;;1.33;0.90;;;;;;;;;;4561324;28;20051;-58
2022/12/25 03:27:57;;;;;;;1.40;0.90;;;;;;;;;;4570691;27;20582;-58
2022/12/25 03:33:06;;;;;;;0.98;0.80;;;;;;;;;;4572892;27;20094;-58
2022/12/25 03:35:24;;;;;;;1.85;0.90;;;;;;;;;;4552852;27;20060;-58
2022/12/25 03:50:48;;;;;;;1.50;1.00;;;;;;;;;;4565050;27;20101;-58
2022/12/25 04:38:01;;;;;;;1.35;0.88;;;;;;;;;;4573100;27;20028;-58
2022/12/25 04:40:12;;;;;;;1.52;0.85;;;;;;;;;;4570540;27;20048;-58
2022/12/25 04:42:22;;;;;;;1.10;0.85;;;;;;;;;;4556356;27;20572;-58
2022/12/25 04:44:32;;;;;;;1.05;0.75;;;;;;;;;;4572430;27;20508;-58
2022/12/25 04:46:43;;;;;;;1.67;0.88;;;;;;;;;;4570562;27;20032;-59
2022/12/25 04:48:53;;;;;;;1.52;1.10;;;;;;;;;;4556528;27;20607;-58
2022/12/25 04:51:14;;;;;;;1.48;0.80;;;;;;;;;;4571716;27;20113;-58
2022/12/25 04:53:24;;;;;;;0.90;0.73;;;;;;;;;;4551839;27;20029;-58
2022/12/25 04:55:34;;;;;;;0.70;0.70;;;;;;;;;;4572749;27;20032;-58
2022/12/25 04:57:44;;;;;;;1.50;0.80;;;;;;;;;;4569764;27;20040;-58
2022/12/25 04:59:55;;;;;;;1.25;0.80;;;;;;;;;;4572517;27;20052;-57
2022/12/25 05:02:05;;;;;;;1.35;1.00;;;;;;;;;;4571372;27;20032;-58
2022/12/25 05:04:15;;;;;;;1.08;0.90;;;;;;;;;;4573654;27;20040;-57
2022/12/25 05:06:26;;;;;;;1.08;0.75;;;;;;;;;;4571822;27;20035;-58
2022/12/25 05:08:36;;;;;;;1.35;0.70;;;;;;;;;;4568062;27;20035;-58
2022/12/25 05:10:47;;;;;;;0.77;0.70;;;;;;;;;;4567976;27;20243;-57
2022/12/25 05:12:57;;;;;;;1.23;0.75;;;;;;;;;;4572963;27;20035;-58
2022/12/25 05:15:08;;;;;;;1.15;0.73;;;;;;;;;;4570670;27;20502;-58
2022/12/25 05:17:18;;;;;;;1.08;0.68;;;;;;;;;;4571104;27;20404;-57
2022/12/25 05:19:28;;;;;;;1.20;0.70;;;;;;;;;;4560025;27;20508;-57
2022/12/25 05:21:39;;;;;;;0.60;0.60;;;;;;;;;;4572248;27;20053;-58
2022/12/25 05:23:50;;;;;;;0.93;0.70;;;;;;;;;;4572701;27;20055;-58
2022/12/25 05:26:06;;;;;;;1.55;0.80;;;;;;;;;;4569600;27;21010;-58
2022/12/25 05:28:17;;;;;;;1.40;0.70;;;;;;;;;;4570344;27;20040;-58
2022/12/25 05:30:27;;;;;;;1.00;0.70;;;;;;;;;;4569424;27;20042;-57
2022/12/25 05:32:37;;;;;;;1.17;0.70;;;;;;;;;;4568267;27;20380;-58
2022/12/25 05:34:47;;;;;;;0.80;0.73;;;;;;;;;;4568581;27;20059;-57
2022/12/25 05:36:58;;;;;;;0.77;0.68;;;;;;;;;;4566553;27;20047;-58
2022/12/25 05:39:08;;;;;;;0.93;0.70;;;;;;;;;;4568263;27;20147;-58
2022/12/25 05:41:19;;;;;;;0.80;0.70;;;;;;;;;;4566619;27;20049;-58
2022/12/25 05:43:29;;;;;;;1.20;0.70;;;;;;;;;;4571984;27;20094;-58
2022/12/25 05:45:39;;;;;;;1.67;0.70;;;;;;;;;;4570796;27;20037;-58
2022/12/25 05:47:51;;;;;;;0.98;0.60;;;;;;;;;;4570622;27;20028;-58
2022/12/25 05:50:01;;;;;;;0.88;0.60;;;;;;;;;;4570739;27;20563;-58
2022/12/25 05:52:12;;;;;;;0.60;0.60;;;;;;;;;;4571053;27;20561;-59
2022/12/25 05:54:22;;;;;;;1.25;0.60;;;;;;;;;;4570089;27;20103;-58
2022/12/25 05:56:32;;;;;;;0.63;0.63;;;;;;;;;;4569501;27;20382;-59
2022/12/25 05:58:43;;;;;;;0.73;0.60;;;;;;;;;;4569122;27;20048;-58
2022/12/25 06:00:53;;;;;;;1.45;0.60;;;;;;;;;;4559404;27;20032;-58
2022/12/25 06:03:03;;;;;;;0.65;0.60;;;;;;;;;;4571072;27;20036;-58
2022/12/25 06:05:13;;;;;;;0.95;0.60;;;;;;;;;;4569081;27;20443;-58
2022/12/25 06:07:24;;;;;;;1.48;0.50;;;;;;;;;;4568358;27;20027;-58
2022/12/25 06:09:34;;;;;;;0.50;0.50;;;;;;;;;;4569404;27;20024;-58
2022/12/25 06:11:44;;;;;;;0.73;0.63;;;;;;;;;;4569297;27;20063;-59
2022/12/25 06:13:55;;;;;;;1.63;0.60;;;;;;;;;;4552241;27;20040;-58
2022/12/25 06:16:06;;;;;;;0.52;0.50;;;;;;;;;;4566527;27;20044;-58
2022/12/25 06:18:16;;;;;;;0.90;0.50;;;;;;;;;;4567600;27;20036;-59
2022/12/25 06:20:27;;;;;;;1.10;0.60;;;;;;;;;;4568782;27;20060;-59
2022/12/25 06:22:37;;;;;;;0.63;0.57;;;;;;;;;;4568445;27;20127;-58
2022/12/25 06:24:47;;;;;;;0.98;0.55;;;;;;;;;;4569925;27;20075;-59
2022/12/25 06:26:58;;;;;;;0.82;0.50;;;;;;;;;;4568244;27;20060;-56
2022/12/25 06:29:08;;;;;;;0.90;0.60;;;;;;;;;;4569657;27;20054;-57
2022/12/25 06:31:20;;;;;;;0.80;0.40;;;;;;;;;;4552083;27;20028;-57
2022/12/25 06:33:30;;;;;;;0.63;0.45;;;;;;;;;;4552252;27;20214;-57
2022/12/25 06:35:41;;;;;;;0.98;0.60;;;;;;;;;;4570197;27;20226;-58
2022/12/25 06:37:52;;;;;;;0.77;0.50;;;;;;;;;;4569143;27;20347;-57
2022/12/25 06:40:02;;;;;;;0.60;0.50;;;;;;;;;;4570344;27;20036;-57
2022/12/25 06:42:12;;;;;;;0.88;0.60;;;;;;;;;;4569035;27;20039;-57
2022/12/25 06:44:23;;;;;;;0.73;0.60;;;;;;;;;;4559110;27;20044;-58
2022/12/25 06:46:33;;;;;;;1.17;0.60;;;;;;;;;;4579299;27;20450;-57
2022/12/25 06:48:48;;;;;;;1.50;0.60;;;;;;;;;;4573614;27;20058;-57
2022/12/25 06:50:58;;;;;;;1.05;0.70;;;;;;;;;;4575474;27;20649;-57
2022/12/25 06:53:09;;;;;;;0.93;0.60;;;;;;;;;;4559040;27;20120;-57
2022/12/25 06:55:19;;;;;;;0.57;0.50;;;;;;;;;;4575673;27;20115;-57
2022/12/25 06:57:29;;;;;;;0.90;0.60;;;;;;;;;;4577758;27;20040;-57
2022/12/25 06:59:39;;;;;;;1.25;0.60;;;;;;;;;;4577205;27;20027;-58
2022/12/25 07:01:54;;;;;;;0.70;0.52;;;;;;;;;;4573010;27;20036;-57
2022/12/25 07:04:05;;;;;;;0.70;0.50;;;;;;;;;;4574712;27;20551;-59
2022/12/25 07:06:16;;;;;;;0.90;0.50;;;;;;;;;;4557225;28;20044;-56
2022/12/25 07:08:26;;;;;;;0.40;0.40;;;;;;;;;;4575604;27;20286;-57
2022/12/25 07:10:36;;;;;;;0.90;0.60;;;;;;;;;;4577658;27;20043;-57
2022/12/25 07:12:47;;;;;;;0.60;0.60;;;;;;;;;;4574975;27;20397;-57
2022/12/25 07:14:57;;;;;;;0.93;0.52;;;;;;;;;;4574042;27;20195;-57
2022/12/25 07:17:07;;;;;;;1.08;0.60;;;;;;;;;;4575926;27;20638;-57
2022/12/25 07:19:18;;;;;;;0.75;0.50;;;;;;;;;;4574818;27;20058;-57
2022/12/25 07:21:28;;;;;;;1.70;0.63;;;;;;;;;;4575028;27;20044;-57
2022/12/25 07:23:38;;;;;;;1.15;0.70;;;;;;;;;;4574520;27;20023;-57
2022/12/25 07:25:58;;;;;;;1.60;0.70;;;;;;;;;;4558150;27;20120;-57
2022/12/25 07:28:09;;;;;;;0.50;0.45;;;;;;;;;;4554898;28;20044;-59
2022/12/25 07:30:19;;;;;;;0.75;0.55;;;;;;;;;;4571985;27;20028;-57
2022/12/25 07:32:30;;;;;;;0.70;0.52;;;;;;;;;;4563710;27;20600;-57
2022/12/25 07:34:40;;;;;;;0.75;0.55;;;;;;;;;;4575078;27;20102;-57
2022/12/25 07:36:52;;;;;;;0.85;0.63;;;;;;;;;;4574471;27;20040;-57
2022/12/25 07:39:03;;;;;;;0.90;0.70;;;;;;;;;;4554908;27;20037;-58
2022/12/25 07:41:13;;;;;;;0.73;0.70;;;;;;;;;;4575464;27;20048;-61
2022/12/25 07:43:24;;;;;;;0.77;0.68;;;;;;;;;;4574506;27;20032;-58
2022/12/25 07:45:34;;;;;;;0.50;0.50;;;;;;;;;;4574888;27;20063;-58
2022/12/25 07:47:44;;;;;;;0.80;0.60;;;;;;;;;;4573098;27;20041;-59
2022/12/25 07:49:55;;;;;;;1.10;0.70;;;;;;;;;;4573955;27;20027;-62
2022/12/25 07:52:05;;;;;;;0.73;0.55;;;;;;;;;;4572302;27;20076;-58
2022/12/25 07:54:15;;;;;;;0.70;0.60;;;;;;;;;;4573468;27;20036;-58
2022/12/25 07:56:26;;;;;;;0.70;0.60;;;;;;;;;;4574263;27;20033;-58
2022/12/25 07:58:36;;;;;;;0.50;0.50;;;;;;;;;;4573405;27;20034;-58
2022/12/25 08:00:46;;;;;;;0.93;0.60;;;;;;;;;;4560840;27;21014;-58
2022/12/25 08:02:57;;;;;;;0.60;0.60;;;;;;;;;;4572996;27;20508;-58
2022/12/25 08:05:08;;;;;;;0.43;0.43;;;;;;;;;;4570177;27;20043;-58
2022/12/25 08:07:18;;;;;;;0.60;0.60;;;;;;;;;;4572921;27;20031;-58
2022/12/25 08:09:28;;;;;;;0.95;0.60;;;;;;;;;;4570774;27;20079;-58
2022/12/25 08:11:42;;;;;;;0.60;0.60;;;;;;;;;;4559819;27;20408;-58
2022/12/25 08:13:53;;;;;;;0.60;0.50;;;;;;;;;;4571586;27;20047;-58
2022/12/25 08:16:06;;;;;;;0.57;0.50;;;;;;;;;;4571371;27;20129;-58
2022/12/25 08:18:16;;;;;;;1.05;0.70;;;;;;;;;;4560839;27;20032;-58
2022/12/25 08:20:27;;;;;;;1.20;0.70;;;;;;;;;;4557151;27;20048;-58
2022/12/25 08:22:37;;;;;;;0.73;0.60;;;;;;;;;;4572252;27;20055;-58
2022/12/25 08:24:47;;;;;;;0.70;0.65;;;;;;;;;;4569411;27;20523;-57
2022/12/25 08:26:58;;;;;;;0.73;0.60;;;;;;;;;;4569578;27;20050;-58
2022/12/25 08:29:08;;;;;;;0.70;0.60;;;;;;;;;;4569248;27;20037;-58
2022/12/25 08:31:20;;;;;;;0.57;0.57;;;;;;;;;;4569780;27;20028;-58
2022/12/25 08:33:30;;;;;;;0.47;0.47;;;;;;;;;;4571456;27;20044;-58
2022/12/25 08:35:41;;;;;;;0.50;0.50;;;;;;;;;;4557927;27;20714;-58
2022/12/25 08:37:51;;;;;;;0.50;0.50;;;;;;;;;;4564719;27;20039;-58
2022/12/25 08:40:01;;;;;;;0.50;0.50;;;;;;;;;;4570230;27;20041;-58
2022/12/25 08:42:14;;;;;;;0.77;0.60;;;;;;;;;;4571577;27;20067;-58
2022/12/25 08:44:24;;;;;;;0.55;0.55;;;;;;;;;;4568981;27;20094;-58
2022/12/25 08:46:35;;;;;;;0.75;0.60;;;;;;;;;;4568893;27;20089;-58
2022/12/25 08:48:46;;;;;;;0.70;0.60;;;;;;;;;;4568000;27;20036;-58
2022/12/25 08:50:57;;;;;;;0.55;0.50;;;;;;;;;;4571790;27;20040;-58
2022/12/25 08:53:07;;;;;;;0.68;0.60;;;;;;;;;;4571498;27;20028;-59
2022/12/25 08:55:17;;;;;;;0.63;0.60;;;;;;;;;;4570991;27;20755;-58
2022/12/25 08:57:28;;;;;;;0.63;0.60;;;;;;;;;;4570093;27;20404;-58
2022/12/25 08:59:38;;;;;;;0.50;0.50;;;;;;;;;;4571835;27;20058;-58
2022/12/25 09:01:48;;;;;;;0.70;0.55;;;;;;;;;;4576454;27;20512;-58
2022/12/25 09:03:59;;;;;;;0.60;0.57;;;;;;;;;;4569762;27;20021;-58
2022/12/25 09:06:10;;;;;;;0.52;0.50;;;;;;;;;;4569965;27;20047;-58
2022/12/25 09:08:21;;;;;;;0.50;0.50;;;;;;;;;;4569192;27;20036;-58
2022/12/25 09:10:34;;;;;;;0.50;0.50;;;;;;;;;;4568517;27;20075;-58
2022/12/25 09:12:44;;;;;;;0.52;0.45;;;;;;;;;;4552341;27;20127;-58
2022/12/25 09:14:55;;;;;;;0.50;0.50;;;;;;;;;;4568665;27;20036;-59
2022/12/25 09:17:05;;;;;;;0.50;0.50;;;;;;;;;;4571565;27;20490;-58
2022/12/25 09:19:15;;;;;;;0.40;0.40;;;;;;;;;;4570076;27;20040;-58
2022/12/25 09:21:26;;;;;;;0.40;0.40;;;;;;;;;;4570162;27;20091;-59
2022/12/25 09:23:36;;;;;;;0.50;0.50;;;;;;;;;;4568638;27;20492;-60
2022/12/25 09:25:47;;;;;;;0.80;0.40;;;;;;;;;;4570135;27;20530;-59
2022/12/25 09:27:57;;;;;;;0.50;0.50;;;;;;;;;;4568870;27;20472;-58
2022/12/25 09:30:07;;;;;;;0.40;0.40;;;;;;;;;;4568534;27;20046;-58
2022/12/25 09:32:18;;;;;;;0.50;0.50;;;;;;;;;;4537845;27;20037;-58
2022/12/25 09:34:28;;;;;;;0.47;0.47;;;;;;;;;;4572360;27;20058;-58
2022/12/25 09:36:38;;;;;;;0.45;0.45;;;;;;;;;;4569704;27;20090;-58
2022/12/25 09:38:49;;;;;;;0.50;0.50;;;;;;;;;;4570927;27;20079;-58
2022/12/25 09:41:06;;;;;;;0.50;0.50;;;;;;;;;;4572407;27;20070;-63
2022/12/25 09:43:18;;;;;;;0.40;0.40;;;;;;;;;;4570907;27;20031;-61
2022/12/25 09:45:33;;;;;;;0.60;0.60;;;;;;;;;;4569057;27;20503;-64
2022/12/25 09:47:45;;;;;;;1.33;0.88;;;;;;;;;;4571366;27;20123;-61
2022/12/25 09:50:16;;;;;;;1.17;1.00;;;;;;;;;;4544677;27;20103;-61
2022/12/25 09:52:45;;;;;;;0.82;0.63;;;;;;;;;;4573253;27;20043;-66
2022/12/25 09:55:02;;;;;;;0.88;0.68;;;;;;;;;;4551727;27;21218;-60
2022/12/25 09:57:13;;;;;;;1.17;0.80;;;;;;;;;;4568158;27;20873;-59
2022/12/25 09:59:24;;;;;;;0.90;0.75;;;;;;;;;;4554564;27;20156;-64
2022/12/25 10:01:35;;;;;;;1.35;0.88;;;;;;;;;;4569035;27;20214;-60
2022/12/25 10:03:52;;;;;;;1.23;0.70;;;;;;;;;;4566720;27;20047;-57
2022/12/25 10:06:09;;;;;;;1.38;0.82;;;;;;;;;;4554564;27;20050;-58
2022/12/25 10:08:42;;;;;;;0.80;0.80;;;;;;;;;;4569897;27;20036;-58
2022/12/25 10:11:16;;;;;;;1.13;0.90;;;;;;;;;;4555145;27;20682;-60
2022/12/25 10:13:39;;;;;;;1.58;1.17;;;;;;;;;;4551010;27;21229;-60
2022/12/25 10:16:08;;;;;;;1.17;0.95;;;;;;;;;;4571475;27;20048;-59
2022/12/25 10:18:18;;;;;;;6.65;6.05;;;;;;;;;;4571808;27;20097;-60
2022/12/25 10:20:29;;;;;;;3.78;3.08;;;;;;;;;;4567948;27;20457;-60
2022/12/25 10:22:49;;;;;;;2.40;2.20;;;;;;;;;;4569982;27;20473;-60
2022/12/25 10:25:01;;;;;;;2.72;2.53;;;;;;;;;;4568836;27;20853;-60
2022/12/25 10:27:16;;;;;;;2.15;1.60;;;;;;;;;;4569525;27;21705;-59
2022/12/25 10:29:29;;;;;;;1.35;1.25;;;;;;;;;;4566312;27;20118;-60
2022/12/25 10:31:40;;;;;;;1.98;1.55;;;;;;;;;;4567907;27;20043;-60
2022/12/25 10:33:51;;;;;;;1.70;1.60;;;;;;;;;;4552858;27;20036;-60
2022/12/25 10:36:02;;;;;;;2.45;1.67;;;;;;;;;;4568145;27;20032;-60
2022/12/25 10:38:13;;;;;;;1.90;1.40;;;;;;;;;;4566963;27;20047;-61
2022/12/25 10:40:29;;;;;;;1.30;1.20;;;;;;;;;;4566900;27;20106;-60
2022/12/25 10:42:43;;;;;;;1.50;1.13;;;;;;;;;;4569747;27;20032;-59
2022/12/25 10:45:01;;;;;;;1.50;1.40;;;;;;;;;;4570243;27;20040;-59
2022/12/25 10:47:21;;;;;;;1.58;1.40;;;;;;;;;;4569273;27;20109;-59
2022/12/25 10:49:37;;;;;;;1.40;1.27;;;;;;;;;;4571223;27;20046;-60
2022/12/25 10:51:47;;;;;;;1.90;1.20;;;;;;;;;;4569641;27;20036;-59
2022/12/25 10:53:58;;;;;;;1.58;1.20;;;;;;;;;;4552502;27;20029;-63
2022/12/25 10:56:16;;;;;;;1.30;1.20;;;;;;;;;;4566633;27;20056;-59
2022/12/25 10:58:27;;;;;;;1.85;1.50;;;;;;;;;;4568761;27;20042;-57
2022/12/25 11:00:38;;;;;;;1.67;1.30;;;;;;;;;;4566488;27;20111;-60
2022/12/25 11:02:48;;;;;;;1.58;1.30;;;;;;;;;;4554817;28;20141;-60
2022/12/25 11:05:06;;;;;;;1.83;1.30;;;;;;;;;;4570671;27;20567;-58
2022/12/25 11:07:17;;;;;;;2.13;1.50;;;;;;;;;;4552861;28;20036;-59
2022/12/25 11:09:27;;;;;;;1.40;1.20;;;;;;;;;;4569544;27;20040;-59
2022/12/25 11:11:39;;;;;;;1.35;1.20;;;;;;;;;;4570114;27;20036;-59
2022/12/25 11:13:51;;;;;;;1.50;1.30;;;;;;;;;;4561559;27;20058;-61
2022/12/25 11:16:02;;;;;;;1.55;1.25;;;;;;;;;;4545375;28;20037;-59
2022/12/25 11:18:20;;;;;;;1.40;1.20;;;;;;;;;;4568048;27;20029;-59
2022/12/25 11:20:32;;;;;;;2.08;1.20;;;;;;;;;;4557067;27;20619;-57
2022/12/25 11:22:44;;;;;;;1.30;1.20;;;;;;;;;;4566239;27;20040;-59
2022/12/25 11:24:54;;;;;;;1.63;1.20;;;;;;;;;;4565530;27;20619;-60
2022/12/25 11:27:07;;;;;;;1.50;1.40;;;;;;;;;;4557170;27;20499;-62
2022/12/25 11:29:18;;;;;;;1.08;1.00;;;;;;;;;;4568656;27;20044;-60
2022/12/25 11:31:36;;;;;;;1.33;1.20;;;;;;;;;;4569981;27;20036;-59
2022/12/25 11:33:49;;;;;;;1.25;1.15;;;;;;;;;;4571715;27;20205;-58
2022/12/25 11:36:02;;;;;;;1.40;1.10;;;;;;;;;;4569269;27;20033;-56
2022/12/25 11:38:12;;;;;;;1.60;1.17;;;;;;;;;;4572847;27;20071;-56
2022/12/25 11:40:26;;;;;;;1.20;1.10;;;;;;;;;;4571942;27;20043;-57
2022/12/25 11:42:38;;;;;;;1.20;1.10;;;;;;;;;;4572445;27;20514;-57
2022/12/25 11:44:56;;;;;;;1.15;1.00;;;;;;;;;;4560578;27;20062;-56
2022/12/25 11:47:14;;;;;;;1.08;0.93;;;;;;;;;;4570908;27;20036;-57
2022/12/25 11:49:24;;;;;;;1.25;1.15;;;;;;;;;;4569681;27;20641;-56
2022/12/25 11:51:37;;;;;;;1.60;1.42;;;;;;;;;;4572131;27;20161;-57
2022/12/25 11:53:50;;;;;;;1.38;1.13;;;;;;;;;;4569146;27;20043;-58
2022/12/25 11:56:04;;;;;;;1.55;1.30;;;;;;;;;;4567230;27;20764;-57
2022/12/25 11:58:30;;;;;;;1.88;1.67;;;;;;;;;;4568768;27;20044;-57
2022/12/25 12:00:41;;;;;;;4.65;3.67;;;;;;;;;;4569250;27;20810;-56
2022/12/25 12:03:01;;;;;;;2.42;2.22;;;;;;;;;;4559416;27;20233;-56
2022/12/25 12:05:16;;;;;;;2.22;1.90;;;;;;;;;;4571002;27;20183;-57
2022/12/25 12:07:28;;;;;;;1.98;1.80;;;;;;;;;;4573210;27;20032;-56
2022/12/25 12:10:03;;;;;;;1.40;1.30;;;;;;;;;;4559040;27;20131;-56
2022/12/25 12:12:18;;;;;;;2.17;1.60;;;;;;;;;;4569448;27;20084;-56
2022/12/25 12:14:48;;;;;;;1.35;1.25;;;;;;;;;;4558509;27;20036;-57
2022/12/25 12:16:59;;;;;;;1.20;1.10;;;;;;;;;;4554534;27;20079;-56
2022/12/25 12:19:24;;;;;;;1.48;1.20;;;;;;;;;;4568998;27;20143;-57
2022/12/25 12:21:34;;;;;;;1.23;1.10;;;;;;;;;;4572876;27;20047;-56
2022/12/25 12:23:48;;;;;;;1.75;1.30;;;;;;;;;;4572588;27;20438;-56
2022/12/25 12:25:59;;;;;;;1.23;1.13;;;;;;;;;;4570192;27;20032;-57
2022/12/25 12:28:12;;;;;;;1.10;1.00;;;;;;;;;;4571227;27;20474;-57
2022/12/25 12:30:25;;;;;;;0.88;0.88;;;;;;;;;;4568090;27;20051;-57
2022/12/25 12:32:43;;;;;;;0.85;0.85;;;;;;;;;;4573063;27;20145;-57
2022/12/25 12:34:54;;;;;;;1.27;1.13;;;;;;;;;;4569293;27;20071;-59
2022/12/25 12:37:06;;;;;;;2.08;1.10;;;;;;;;;;4570033;27;20132;-57
2022/12/25 12:39:21;;;;;;;1.00;0.93;;;;;;;;;;4571909;27;20036;-58
2022/12/25 12:41:41;;;;;;;0.90;0.90;;;;;;;;;;4569278;27;20070;-58
2022/12/25 12:43:54;;;;;;;0.90;0.80;;;;;;;;;;4571065;27;20079;-57
2022/12/25 12:46:06;;;;;;;0.90;0.90;;;;;;;;;;4570743;27;20893;-55
2022/12/25 12:48:23;;;;;;;2.03;1.10;;;;;;;;;;4568938;27;20692;-58
2022/12/25 12:50:34;;;;;;;;;;;;;;;;;;4571591;27;20035;-56
2022/12/25 12:52:44;;;;;;;1.70;1.00;;;;;;;;;;4572346;27;19951;-57
2022/12/25 12:55:03;;;;;;;1.10;0.98;;;;;;;;;;4572762;27;20052;-59
2022/12/25 12:57:24;;;;;;;1.35;1.20;;;;;;;;;;4570076;27;20043;-58
2022/12/25 12:59:38;;;;;;;1.70;1.50;;;;;;;;;;4571473;27;20031;-57
2022/12/25 13:01:49;;;;;;;1.70;1.60;;;;;;;;;;4559661;27;20902;-58
2022/12/25 13:04:17;;;;;;;1.60;1.40;;;;;;;;;;4556125;27;20029;-57
2022/12/25 13:06:34;;;;;;;1.58;1.45;;;;;;;;;;4573497;27;20645;-58
2022/12/25 13:08:53;;;;;;;1.40;1.13;;;;;;;;;;4569305;27;20040;-58
2022/12/25 13:11:21;;;;;;;1.10;1.00;;;;;;;;;;4571235;27;20653;-56
2022/12/25 13:13:35;;;;;;;1.52;1.30;;;;;;;;;;4572652;27;20530;-57
2022/12/25 13:15:48;;;;;;;1.15;1.00;;;;;;;;;;4571595;27;20562;-57
2022/12/25 13:18:02;;;;;;;1.25;1.02;;;;;;;;;;4571956;27;20032;-56
2022/12/25 13:20:19;;;;;;;1.75;1.15;;;;;;;;;;4569972;27;20098;-56
2022/12/25 13:22:31;;;;;;;2.15;1.40;;;;;;;;;;4565512;27;20032;-56
2022/12/25 13:24:41;;;;;;;1.58;1.20;;;;;;;;;;4570336;27;20089;-57
2022/12/25 13:26:51;;;;;;;1.40;1.23;;;;;;;;;;4536990;27;20075;-56
2022/12/25 13:29:02;;;;;;;1.20;1.10;;;;;;;;;;4554826;27;20076;-57
2022/12/25 13:31:16;;;;;;;1.73;1.10;;;;;;;;;;4569933;27;20545;-56
2022/12/25 13:33:26;;;;;;;1.33;1.23;;;;;;;;;;4568422;27;20040;-57
2022/12/25 13:35:41;;;;;;;1.50;1.38;;;;;;;;;;4571443;27;20028;-56
2022/12/25 13:37:52;;;;;;;1.48;1.38;;;;;;;;;;4568588;27;20276;-56
2022/12/25 13:40:05;;;;;;;1.50;1.40;;;;;;;;;;4568183;27;20040;-57
2022/12/25 13:42:16;;;;;;;1.23;1.13;;;;;;;;;;4568083;27;20043;-57
2022/12/25 13:44:28;;;;;;;1.40;1.20;;;;;;;;;;4558063;27;20045;-57
2022/12/25 13:46:38;;;;;;;1.30;1.20;;;;;;;;;;4570209;27;20041;-57
2022/12/25 13:48:54;;;;;;;1.25;1.15;;;;;;;;;;4568734;27;20065;-56
2022/12/25 13:51:04;;;;;;;1.13;1.02;;;;;;;;;;4552888;27;20121;-56
2022/12/25 13:53:15;;;;;;;1.10;1.00;;;;;;;;;;4569912;27;20030;-57
2022/12/25 13:55:27;;;;;;;1.00;1.00;;;;;;;;;;4569194;27;20622;-57
2022/12/25 13:57:57;;;;;;;1.85;1.08;;;;;;;;;;4551654;27;21051;-57
2022/12/25 14:00:16;;;;;;;1.30;1.10;;;;;;;;;;4569455;27;20083;-56
2022/12/25 14:02:29;;;;;;;1.08;1.00;;;;;;;;;;4559637;27;20043;-56
2022/12/25 14:04:43;;;;;;;1.05;1.00;;;;;;;;;;4570042;27;20067;-56
2022/12/25 14:06:53;;;;;;;1.27;1.17;;;;;;;;;;4569881;27;20074;-57
2022/12/25 14:09:03;;;;;;;1.42;1.33;;;;;;;;;;4567661;27;20048;-57
2022/12/25 14:11:14;;;;;;;1.80;1.70;;;;;;;;;;4567229;27;20165;-57
2022/12/25 14:13:26;;;;;;;2.30;2.10;;;;;;;;;;4566984;27;20119;-57
2022/12/25 14:15:38;;;;;;;2.10;1.90;;;;;;;;;;4550298;28;20063;-56
2022/12/25 14:17:51;;;;;;;2.17;1.90;;;;;;;;;;4567754;27;21479;-56
2022/12/25 14:20:02;;;;;;;1.85;1.45;;;;;;;;;;4565921;27;21001;-56
2022/12/25 14:22:22;;;;;;;1.55;1.40;;;;;;;;;;4569189;27;20038;-56
2022/12/25 14:24:33;;;;;;;1.20;1.10;;;;;;;;;;4568311;27;20594;-56
2022/12/25 14:26:43;;;;;;;1.20;1.10;;;;;;;;;;4570337;27;20043;-56
2022/12/25 14:29:07;;;;;;;1.33;1.23;;;;;;;;;;4570187;27;20118;-56
2022/12/25 14:31:18;;;;;;;1.27;1.10;;;;;;;;;;4570772;27;20035;-56
2022/12/25 14:33:34;;;;;;;1.85;1.00;;;;;;;;;;4569830;27;20032;-57
2022/12/25 14:35:45;;;;;;;0.95;0.95;;;;;;;;;;4569343;27;20103;-57
2022/12/25 14:37:58;;;;;;;1.10;1.00;;;;;;;;;;4568792;27;20039;-58
2022/12/25 14:40:22;;;;;;;1.50;1.40;;;;;;;;;;4545210;27;20048;-57
2022/12/25 14:42:36;;;;;;;1.23;1.10;;;;;;;;;;4568801;27;20040;-57
2022/12/25 14:45:05;;;;;;;1.48;1.38;;;;;;;;;;4536935;27;20779;-56
2022/12/25 14:47:17;;;;;;;2.08;1.30;;;;;;;;;;4567491;27;20040;-57
2022/12/25 14:49:30;;;;;;;1.20;1.10;;;;;;;;;;4568875;27;20103;-56
2022/12/25 14:51:41;;;;;;;1.23;1.13;;;;;;;;;;4567460;27;20077;-56
2022/12/25 14:53:56;;;;;;;1.40;1.30;;;;;;;;;;4568609;27;20067;-56
2022/12/25 14:56:07;;;;;;;1.10;0.95;;;;;;;;;;4567785;27;20914;-56
2022/12/25 14:58:22;;;;;;;1.30;1.20;;;;;;;;;;4566760;27;20020;-58
2022/12/25 15:00:35;;;;;;;2.00;1.80;;;;;;;;;;4566569;27;20037;-57